Time;durP1;ratioP1;P1;durP2;ratioP2;P2;SDS_P1;SDS_P2;PMS_P1;PMS_P2;Temp;Humidity;BMP_temperature;BMP_pressure;BME280_temperature;BME280_humidity;BME280_pressure;Samples;Min_cycle;Max_cycle;Signal;HPM_P1;HPM_P2
2021/09/22 00:01:44;;;;;;;7.10;3.07;;;13.60;99.90;;;;;;5981056;23;20216;-71
2021/09/22 00:04:09;;;;;;;10.17;3.70;;;13.60;99.90;;;;;;5981964;23;21057;-71
2021/09/22 00:06:37;;;;;;;8.37;3.23;;;13.60;99.90;;;;;;5998266;23;20220;-71
2021/09/22 00:09:03;;;;;;;8.10;3.13;;;13.60;99.90;;;;;;5980402;23;20181;-71
2021/09/22 00:11:39;;;;;;;9.27;3.40;;;13.60;99.90;;;;;;6021061;23;20571;-71
2021/09/22 00:14:04;;;;;;;7.80;3.60;;;13.60;99.90;;;;;;6005860;23;20158;-71
2021/09/22 00:16:30;;;;;;;10.37;3.47;;;13.60;99.90;;;;;;6003409;23;20653;-71
2021/09/22 00:18:56;;;;;;;9.27;3.60;;;13.60;99.90;;;;;;6005413;23;20600;-71
2021/09/22 00:21:21;;;;;;;10.60;3.53;;;13.60;99.90;;;;;;6006295;23;20230;-71
2021/09/22 00:23:47;;;;;;;10.30;3.40;;;13.60;99.90;;;;;;5980791;23;20169;-71
2021/09/22 00:26:15;;;;;;;11.73;4.20;;;13.60;99.90;;;;;;6002926;23;20323;-71
2021/09/22 00:28:43;;;;;;;8.27;3.87;;;13.60;99.90;;;;;;6004941;23;20574;-71
2021/09/22 00:31:09;;;;;;;7.70;3.60;;;13.50;99.90;;;;;;6004619;23;20573;-71
2021/09/22 00:33:34;;;;;;;8.37;3.60;;;13.50;99.90;;;;;;6003373;23;20875;-71
2021/09/22 00:36:00;;;;;;;8.37;3.70;;;13.50;99.90;;;;;;6003356;23;20287;-71
2021/09/22 00:38:28;;;;;;;10.80;3.40;;;13.50;99.90;;;;;;6003754;23;20185;-70
2021/09/22 00:40:54;;;;;;;14.50;4.13;;;13.50;99.90;;;;;;6006734;23;20453;-71
2021/09/22 00:43:19;;;;;;;9.27;3.60;;;13.50;99.90;;;;;;6005644;23;20557;-71
2021/09/22 00:45:45;;;;;;;8.27;3.60;;;13.50;99.90;;;;;;6002343;23;20203;-71
2021/09/22 00:48:13;;;;;;;7.70;3.37;;;13.50;99.90;;;;;;6004646;23;20197;-71
2021/09/22 00:50:41;;;;;;;9.50;2.90;;;13.40;99.90;;;;;;6005083;23;20161;-71
2021/09/22 00:53:12;;;;;;;7.50;3.40;;;13.50;99.90;;;;;;6001820;23;20624;-71
2021/09/22 00:55:43;;;;;;;7.17;2.23;;;13.50;99.90;;;;;;5977640;23;20594;-71
2021/09/22 00:58:12;;;;;;;8.10;2.87;;;13.40;99.90;;;;;;6003702;23;20972;-71
2021/09/22 01:00:38;;;;;;;7.70;3.47;;;13.40;99.90;;;;;;5979930;23;21097;-71
2021/09/22 01:03:07;;;;;;;7.13;3.00;;;13.40;99.90;;;;;;6003161;23;20534;-71
2021/09/22 01:05:33;;;;;;;8.10;3.20;;;13.40;99.90;;;;;;6001812;23;20173;-70
2021/09/22 01:08:01;;;;;;;8.50;3.30;;;13.30;99.90;;;;;;6001848;23;20570;-71
2021/09/22 01:10:31;;;;;;;6.10;3.07;;;13.30;99.90;;;;;;5978801;23;20667;-71
2021/09/22 01:13:02;;;;;;;10.80;3.40;;;13.30;99.90;;;;;;6002682;23;20545;-71
2021/09/22 01:15:38;;;;;;;9.50;3.33;;;13.30;99.90;;;;;;6002273;23;20517;-70
2021/09/22 01:18:10;;;;;;;9.00;3.40;;;13.20;99.90;;;;;;6003654;23;20601;-71
2021/09/22 01:20:46;;;;;;;9.53;3.73;;;13.30;99.90;;;;;;5978779;23;20691;-70
2021/09/22 01:23:15;;;;;;;7.30;3.40;;;13.20;99.90;;;;;;6007492;23;20960;-70
2021/09/22 01:25:45;;;;;;;6.33;2.73;;;13.20;99.90;;;;;;5978036;23;20577;-70
2021/09/22 01:28:11;;;;;;;6.70;2.97;;;13.30;99.90;;;;;;5979122;23;20591;-71
2021/09/22 01:30:37;;;;;;;8.20;3.53;;;13.20;99.90;;;;;;5978831;23;20589;-71
2021/09/22 01:33:06;;;;;;;8.37;3.37;;;13.20;99.90;;;;;;6004232;23;20540;-71
2021/09/22 01:35:43;;;;;;;6.80;2.87;;;13.20;99.90;;;;;;6001377;23;20288;-70
2021/09/22 01:38:22;;;;;;;8.20;2.93;;;13.20;99.90;;;;;;6001730;23;20632;-71
2021/09/22 01:41:00;;;;;;;7.40;3.23;;;13.20;99.90;;;;;;6005023;23;20615;-71
2021/09/22 01:43:35;;;;;;;5.47;2.57;;;13.10;99.90;;;;;;6011259;23;20506;-71
2021/09/22 01:46:04;;;;;;;12.43;3.23;;;13.10;99.90;;;;;;6024651;23;20589;-70
2021/09/22 01:48:30;;;;;;;6.30;3.00;;;13.10;99.90;;;;;;6017165;23;20671;-70
2021/09/22 01:50:58;;;;;;;6.97;3.17;;;13.10;99.90;;;;;;6005661;23;20586;-71
2021/09/22 01:53:23;;;;;;;8.87;2.90;;;13.10;99.90;;;;;;6001393;23;20573;-70
2021/09/22 01:55:52;;;;;;;6.90;3.70;;;13.10;99.90;;;;;;6002187;23;21034;-71
2021/09/22 01:58:22;;;;;;;7.00;3.00;;;13.10;99.90;;;;;;6003310;23;20192;-70
2021/09/22 02:00:48;;;;;;;6.37;3.20;;;13.00;99.90;;;;;;6003577;23;20543;-70
2021/09/22 02:03:17;;;;;;;8.83;3.37;;;13.00;99.90;;;;;;6003057;23;20540;-70
2021/09/22 02:05:50;;;;;;;10.40;5.07;;;13.00;99.90;;;;;;5977897;23;20660;-71
2021/09/22 02:08:19;;;;;;;5.60;2.83;;;12.90;99.90;;;;;;6002467;23;20666;-71
2021/09/22 02:10:47;;;;;;;7.03;2.77;;;12.90;99.90;;;;;;6003778;23;20572;-70
2021/09/22 02:13:13;;;;;;;8.60;3.20;;;12.90;99.90;;;;;;5978082;23;20621;-71
2021/09/22 02:15:40;;;;;;;7.37;3.07;;;12.90;99.90;;;;;;5994639;23;20585;-71
2021/09/22 02:18:09;;;;;;;6.00;2.87;;;13.00;99.90;;;;;;6004735;23;20185;-70
2021/09/22 02:20:35;;;;;;;7.83;3.10;;;12.90;99.90;;;;;;5977172;23;20565;-70
2021/09/22 02:23:01;;;;;;;10.47;3.80;;;12.90;99.90;;;;;;6004357;23;20622;-70
2021/09/22 02:25:26;;;;;;;6.70;3.23;;;13.00;99.90;;;;;;6002764;23;20538;-70
2021/09/22 02:27:57;;;;;;;5.73;3.03;;;13.00;99.90;;;;;;6001898;23;20513;-71
2021/09/22 02:30:26;;;;;;;5.77;3.07;;;13.00;99.90;;;;;;6003817;23;20232;-70
2021/09/22 02:32:52;;;;;;;6.83;2.83;;;13.00;99.90;;;;;;6003449;23;20622;-70
2021/09/22 02:35:17;;;;;;;7.67;3.20;;;12.90;99.90;;;;;;6002582;23;20578;-71
2021/09/22 02:37:43;;;;;;;5.83;3.40;;;12.90;99.90;;;;;;6002367;23;20617;-70
2021/09/22 02:40:14;;;;;;;10.33;3.70;;;12.90;99.90;;;;;;5978312;23;20260;-71
2021/09/22 02:42:41;;;;;;;10.53;2.93;;;12.90;99.90;;;;;;6003823;23;20174;-71
2021/09/22 02:45:08;;;;;;;6.90;3.07;;;12.90;99.90;;;;;;6003756;23;20537;-70
2021/09/22 02:47:33;;;;;;;4.80;2.87;;;12.90;99.90;;;;;;6001251;23;20610;-70
2021/09/22 02:49:59;;;;;;;6.43;2.90;;;12.90;99.90;;;;;;5978603;23;21147;-71
2021/09/22 02:52:25;;;;;;;11.10;3.73;;;12.90;99.90;;;;;;6004729;23;20458;-70
2021/09/22 02:54:50;;;;;;;6.00;2.93;;;12.90;99.90;;;;;;6001016;23;20169;-70
2021/09/22 02:57:16;;;;;;;6.13;3.07;;;13.00;99.90;;;;;;6001632;23;20209;-70
2021/09/22 02:59:44;;;;;;;7.67;3.57;;;12.90;99.90;;;;;;6003767;23;20552;-70
2021/09/22 03:02:09;;;;;;;20.00;16.23;;;12.90;99.90;;;;;;6003188;23;20157;-70
2021/09/22 03:04:35;;;;;;;6.40;2.90;;;12.90;99.90;;;;;;5977787;23;20558;-70
2021/09/22 03:07:03;;;;;;;5.83;2.90;;;12.90;99.90;;;;;;6002320;23;20558;-70
2021/09/22 03:09:28;;;;;;;5.23;3.30;;;12.90;99.90;;;;;;5978548;23;20189;-70
2021/09/22 03:11:56;;;;;;;6.40;3.00;;;12.80;99.90;;;;;;6004410;23;20542;-71
2021/09/22 03:14:22;;;;;;;10.00;3.47;;;12.90;99.90;;;;;;6002495;23;20209;-70
2021/09/22 03:16:47;;;;;;;7.57;2.93;;;12.80;99.90;;;;;;6002862;23;21329;-70
2021/09/22 03:19:13;;;;;;;5.83;3.27;;;12.70;99.90;;;;;;6003856;23;20182;-70
2021/09/22 03:21:38;;;;;;;4.53;2.70;;;12.80;99.90;;;;;;6002334;23;20225;-70
2021/09/22 03:24:04;;;;;;;7.40;3.80;;;12.80;99.90;;;;;;6004532;23;20539;-71
2021/09/22 03:26:32;;;;;;;6.50;3.03;;;12.80;99.90;;;;;;5978162;23;20215;-70
2021/09/22 03:28:57;;;;;;;5.33;2.93;;;12.80;99.90;;;;;;6002955;23;20200;-71
2021/09/22 03:31:23;;;;;;;8.50;3.43;;;12.80;99.90;;;;;;6003362;23;20545;-70
2021/09/22 03:33:51;;;;;;;5.07;3.00;;;12.80;99.90;;;;;;6002481;23;20207;-70
2021/09/22 03:36:16;;;;;;;8.13;3.27;;;12.80;99.90;;;;;;6001904;23;20922;-70
2021/09/22 03:38:44;;;;;;;6.67;3.07;;;12.70;99.90;;;;;;6003276;23;20722;-70
2021/09/22 03:41:10;;;;;;;5.50;3.23;;;12.70;99.90;;;;;;6002932;23;20240;-71
2021/09/22 03:43:40;;;;;;;7.00;3.30;;;12.70;99.90;;;;;;6003601;23;21072;-70
2021/09/22 03:46:09;;;;;;;8.90;3.27;;;12.70;99.90;;;;;;6001071;23;20242;-70
2021/09/22 03:48:34;;;;;;;5.50;3.27;;;12.60;99.90;;;;;;6003852;23;20549;-70
2021/09/22 03:51:00;;;;;;;5.47;3.20;;;12.60;99.90;;;;;;6003013;23;20538;-70
2021/09/22 03:53:29;;;;;;;5.73;3.37;;;12.60;99.90;;;;;;6002786;23;20161;-70
2021/09/22 03:56:00;;;;;;;5.20;3.00;;;12.60;99.90;;;;;;5998578;23;20527;-70
2021/09/22 03:58:28;;;;;;;5.97;3.00;;;12.60;99.90;;;;;;6002509;23;20594;-70
2021/09/22 04:00:54;;;;;;;5.00;3.30;;;12.60;99.90;;;;;;6002518;23;21071;-71
2021/09/22 04:03:22;;;;;;;6.43;3.27;;;12.60;99.90;;;;;;6002906;23;20557;-71
2021/09/22 04:05:50;;;;;;;6.90;3.00;;;12.60;99.90;;;;;;6001811;23;20204;-70
2021/09/22 04:08:15;;;;;;;6.20;3.40;;;12.60;99.90;;;;;;6001818;23;20932;-70
2021/09/22 04:10:41;;;;;;;7.53;3.30;;;12.60;99.90;;;;;;5978148;23;20727;-70
2021/09/22 04:13:06;;;;;;;6.73;3.27;;;12.60;99.90;;;;;;6002098;23;20161;-71
2021/09/22 04:15:34;;;;;;;7.20;3.40;;;12.60;99.90;;;;;;6002380;23;20161;-70
2021/09/22 04:18:02;;;;;;;7.50;3.40;;;12.60;99.90;;;;;;6002794;23;20275;-71
2021/09/22 04:20:32;;;;;;;9.10;3.80;;;12.60;99.90;;;;;;6001223;23;20569;-71
2021/09/22 04:23:01;;;;;;;4.50;3.30;;;12.50;99.90;;;;;;6006173;23;20542;-70
2021/09/22 04:25:26;;;;;;;4.63;3.17;;;12.60;99.90;;;;;;6005204;23;20584;-70
2021/09/22 04:27:52;;;;;;;8.40;3.50;;;12.60;99.90;;;;;;6003518;23;20565;-70
2021/09/22 04:30:18;;;;;;;6.00;3.10;;;12.60;99.90;;;;;;6004769;23;20165;-71
2021/09/22 04:32:46;;;;;;;5.70;2.83;;;12.60;99.90;;;;;;6003350;23;20202;-70
2021/09/22 04:35:12;;;;;;;3.93;2.57;;;12.50;99.90;;;;;;6004615;23;20705;-70
2021/09/22 04:37:40;;;;;;;8.00;3.57;;;12.60;99.90;;;;;;6002841;23;20740;-70
2021/09/22 04:40:11;;;;;;;6.83;3.33;;;12.60;99.90;;;;;;6004129;23;20209;-70
2021/09/22 04:42:37;;;;;;;6.00;3.00;;;12.60;99.90;;;;;;6004103;23;20538;-70
2021/09/22 04:45:03;;;;;;;6.03;3.33;;;12.60;99.90;;;;;;6004687;23;20537;-70
2021/09/22 04:47:29;;;;;;;6.77;3.70;;;12.60;99.90;;;;;;6003444;23;20613;-70
2021/09/22 04:50:01;;;;;;;6.63;3.30;;;12.60;99.90;;;;;;6003975;23;20637;-70
2021/09/22 04:52:28;;;;;;;5.50;3.17;;;12.50;99.90;;;;;;5977890;23;20614;-71
2021/09/22 04:54:54;;;;;;;6.40;3.27;;;12.50;99.90;;;;;;6001924;23;21467;-70
2021/09/22 04:57:22;;;;;;;6.87;3.30;;;12.50;99.90;;;;;;6002012;23;20629;-71
2021/09/22 04:59:50;;;;;;;5.50;3.70;;;12.50;99.90;;;;;;5977899;23;20191;-71
2021/09/22 05:02:15;;;;;;;4.60;3.10;;;12.50;99.90;;;;;;6003457;23;20549;-71
2021/09/22 05:04:43;;;;;;;6.00;3.13;;;12.50;99.90;;;;;;6002630;23;20620;-71
2021/09/22 05:07:11;;;;;;;4.80;3.00;;;12.50;99.90;;;;;;6002042;23;20215;-71
2021/09/22 05:09:42;;;;;;;6.27;3.17;;;12.50;99.90;;;;;;5972802;23;20593;-71
2021/09/22 05:12:10;;;;;;;6.77;3.30;;;12.50;99.90;;;;;;5997839;23;20529;-70
2021/09/22 05:14:38;;;;;;;4.73;2.90;;;12.50;99.90;;;;;;5999704;23;20573;-70
2021/09/22 05:17:04;;;;;;;5.50;3.23;;;12.50;99.90;;;;;;5974939;23;20672;-70
2021/09/22 05:19:29;;;;;;;6.20;3.10;;;12.50;99.90;;;;;;5999187;23;21056;-70
2021/09/22 05:21:55;;;;;;;3.73;2.60;;;12.50;99.90;;;;;;5999984;23;20236;-70
2021/09/22 05:24:21;;;;;;;4.47;2.70;;;12.50;99.90;;;;;;6002548;23;20164;-70
2021/09/22 05:26:46;;;;;;;6.53;3.57;;;12.50;99.90;;;;;;5997970;23;20213;-70
2021/09/22 05:29:12;;;;;;;5.63;3.00;;;12.50;99.90;;;;;;5999259;23;20533;-70
2021/09/22 05:31:37;;;;;;;4.60;2.90;;;12.50;99.90;;;;;;6000921;23;20237;-71
2021/09/22 05:34:03;;;;;;;10.27;3.90;;;12.50;99.90;;;;;;6001315;23;20676;-70
2021/09/22 05:36:28;;;;;;;5.00;3.33;;;12.40;99.90;;;;;;5975934;23;20201;-70
2021/09/22 05:38:54;;;;;;;7.87;3.30;;;12.50;99.90;;;;;;6001623;23;20185;-70
2021/09/22 05:41:19;;;;;;;6.37;3.10;;;12.50;99.90;;;;;;5978368;23;20161;-70
2021/09/22 05:43:45;;;;;;;11.77;4.60;;;12.50;99.90;;;;;;5979143;23;20165;-70
2021/09/22 05:46:13;;;;;;;6.60;3.70;;;12.50;99.90;;;;;;6002188;23;20694;-69
2021/09/22 05:48:39;;;;;;;5.17;3.80;;;12.50;99.90;;;;;;6003234;23;20157;-71
2021/09/22 05:51:05;;;;;;;6.27;3.37;;;12.50;99.90;;;;;;5978989;23;20593;-70
2021/09/22 05:53:33;;;;;;;5.50;3.40;;;12.50;99.90;;;;;;6023520;23;20157;-70
2021/09/22 05:56:04;;;;;;;4.63;3.30;;;12.50;99.90;;;;;;6021969;23;20224;-70
2021/09/22 05:58:29;;;;;;;6.70;3.30;;;12.50;99.90;;;;;;6007449;23;20600;-70
2021/09/22 06:00:57;;;;;;;6.10;3.33;;;12.50;99.90;;;;;;6003024;23;20644;-70
2021/09/22 06:03:22;;;;;;;5.83;3.50;;;12.60;99.90;;;;;;6000481;23;20161;-70
2021/09/22 06:05:48;;;;;;;8.13;4.10;;;12.60;99.90;;;;;;5994709;23;21123;-70
2021/09/22 06:08:13;;;;;;;6.87;3.80;;;12.60;99.90;;;;;;6001715;23;20184;-70
2021/09/22 06:10:39;;;;;;;9.83;4.17;;;12.60;99.90;;;;;;6002105;23;20260;-70
2021/09/22 06:13:05;;;;;;;6.77;3.30;;;12.60;99.90;;;;;;6001155;23;20168;-70
2021/09/22 06:15:31;;;;;;;7.13;3.90;;;12.70;99.90;;;;;;6001900;23;20596;-70
2021/09/22 06:17:57;;;;;;;8.27;4.20;;;12.70;99.90;;;;;;5978227;23;21257;-70
2021/09/22 06:20:23;;;;;;;8.60;4.60;;;12.70;99.90;;;;;;6007006;23;20530;-70
2021/09/22 06:22:49;;;;;;;7.87;4.00;;;12.70;99.90;;;;;;5982070;23;20635;-70
2021/09/22 06:25:16;;;;;;;7.30;3.57;;;12.80;99.90;;;;;;5981620;23;20631;-70
2021/09/22 06:27:42;;;;;;;6.30;3.33;;;12.80;99.90;;;;;;6004428;23;20215;-70
2021/09/22 06:30:08;;;;;;;5.33;3.33;;;12.80;99.90;;;;;;6007366;23;20756;-70
2021/09/22 06:32:35;;;;;;;10.50;4.20;;;12.90;99.90;;;;;;5982361;23;20569;-70
2021/09/22 06:35:01;;;;;;;9.23;4.20;;;12.90;99.90;;;;;;6005457;23;20546;-70
2021/09/22 06:37:26;;;;;;;8.83;4.37;;;12.90;99.90;;;;;;6005531;23;20948;-70
2021/09/22 06:39:52;;;;;;;9.10;4.83;;;13.00;99.90;;;;;;5981612;23;20900;-70
2021/09/22 06:42:18;;;;;;;9.27;5.57;;;13.00;99.90;;;;;;5981725;23;20208;-70
2021/09/22 06:44:43;;;;;;;7.63;3.97;;;13.10;99.90;;;;;;6006709;23;20163;-70
2021/09/22 06:47:09;;;;;;;8.87;4.50;;;13.10;99.90;;;;;;6005148;23;20727;-70
2021/09/22 06:49:34;;;;;;;9.10;4.97;;;13.20;99.90;;;;;;6005324;23;20161;-70
2021/09/22 06:52:00;;;;;;;8.50;5.33;;;13.20;99.90;;;;;;5982193;23;20161;-70
2021/09/22 06:54:25;;;;;;;11.83;6.10;;;13.30;99.90;;;;;;6005188;23;20508;-70
2021/09/22 06:56:51;;;;;;;12.83;6.30;;;13.30;99.90;;;;;;6004608;23;20667;-70
2021/09/22 06:59:18;;;;;;;13.00;6.77;;;13.40;99.90;;;;;;6003311;23;20212;-70
2021/09/22 07:01:44;;;;;;;12.60;7.63;;;13.50;99.90;;;;;;6006790;23;20157;-70
2021/09/22 07:04:10;;;;;;;11.70;6.80;;;13.50;99.90;;;;;;6006073;23;20537;-70
2021/09/22 07:06:35;;;;;;;13.93;7.87;;;13.60;99.90;;;;;;5980795;23;20605;-70
2021/09/22 07:09:01;;;;;;;15.77;7.73;;;13.70;99.90;;;;;;6006992;23;20551;-70
2021/09/22 07:11:26;;;;;;;27.90;9.37;;;13.70;99.90;;;;;;6007145;23;20492;-70
2021/09/22 07:13:52;;;;;;;13.70;8.63;;;13.80;99.90;;;;;;6007199;23;20157;-70
2021/09/22 07:16:17;;;;;;;14.33;8.33;;;13.90;99.90;;;;;;5981096;23;20240;-70
2021/09/22 07:18:44;;;;;;;17.67;9.43;;;14.00;99.90;;;;;;5980832;23;20184;-70
2021/09/22 07:21:10;;;;;;;14.57;8.33;;;14.00;99.90;;;;;;6007256;23;20217;-70
2021/09/22 07:23:37;;;;;;;15.23;8.67;;;14.10;99.90;;;;;;6006951;23;20534;-70
2021/09/22 07:26:03;;;;;;;12.30;8.13;;;14.10;99.90;;;;;;6005345;23;20692;-70
2021/09/22 07:28:33;;;;;;;19.90;8.80;;;14.20;99.90;;;;;;6006139;23;20558;-70
2021/09/22 07:30:58;;;;;;;18.77;8.33;;;14.30;99.90;;;;;;6006945;23;20558;-70
2021/09/22 07:33:24;;;;;;;14.77;8.87;;;14.40;99.90;;;;;;6005892;23;20596;-70
2021/09/22 07:35:50;;;;;;;12.30;8.30;;;14.40;99.90;;;;;;6005542;23;20271;-72
2021/09/22 07:38:16;;;;;;;15.30;9.60;;;14.50;99.90;;;;;;6005863;23;20209;-70
2021/09/22 07:40:43;;;;;;;15.77;7.90;;;14.50;99.90;;;;;;6007470;23;20545;-70
2021/09/22 07:43:09;;;;;;;10.40;8.03;;;14.60;99.90;;;;;;5981957;23;20578;-70
2021/09/22 07:45:35;;;;;;;15.77;8.70;;;14.60;99.90;;;;;;5980492;23;20561;-70
2021/09/22 07:48:01;;;;;;;19.63;9.23;;;14.70;99.90;;;;;;6006859;23;20569;-70
2021/09/22 07:50:26;;;;;;;15.20;9.20;;;14.70;99.90;;;;;;6007069;23;21111;-70
2021/09/22 07:52:52;;;;;;;15.43;9.10;;;14.80;99.90;;;;;;5982480;23;20653;-70
2021/09/22 07:55:18;;;;;;;20.20;8.80;;;14.80;99.90;;;;;;6002895;23;20191;-68
2021/09/22 07:57:44;;;;;;;17.53;8.47;;;14.80;99.90;;;;;;6006832;23;20192;-70
2021/09/22 08:00:11;;;;;;;16.10;8.70;;;14.90;99.90;;;;;;5980743;23;20593;-70
2021/09/22 08:02:37;;;;;;;13.40;7.83;;;14.90;99.90;;;;;;6008911;23;20630;-70
2021/09/22 08:05:03;;;;;;;14.40;8.40;;;15.00;99.90;;;;;;6007232;23;20561;-70
2021/09/22 08:07:29;;;;;;;14.80;8.23;;;15.00;99.90;;;;;;6008138;23;20212;-70
2021/09/22 08:09:54;;;;;;;16.03;8.30;;;15.10;99.90;;;;;;6006690;23;20573;-70
2021/09/22 08:12:20;;;;;;;14.13;8.40;;;15.20;99.90;;;;;;6008804;23;20160;-70
2021/09/22 08:14:46;;;;;;;14.37;7.20;;;15.30;99.90;;;;;;6006424;23;20553;-70
2021/09/22 08:17:14;;;;;;;14.27;8.23;;;15.30;99.90;;;;;;5981908;23;20655;-70
2021/09/22 08:19:41;;;;;;;11.13;6.40;;;15.40;99.90;;;;;;6005292;23;20615;-70
2021/09/22 08:22:07;;;;;;;15.60;6.83;;;15.50;99.90;;;;;;6009083;23;20565;-70
2021/09/22 08:24:33;;;;;;;16.77;6.67;;;15.50;99.90;;;;;;6008091;23;20594;-70
2021/09/22 08:26:59;;;;;;;15.80;5.83;;;15.60;99.90;;;;;;6006974;23;20645;-70
2021/09/22 08:29:25;;;;;;;15.57;7.00;;;15.80;99.90;;;;;;6008677;23;20564;-70
2021/09/22 08:31:50;;;;;;;11.00;6.30;;;15.80;99.90;;;;;;6009275;23;21354;-70
2021/09/22 08:34:17;;;;;;;14.50;6.20;;;16.00;99.90;;;;;;6007527;23;20213;-72
2021/09/22 08:36:46;;;;;;;9.83;5.80;;;16.00;99.90;;;;;;6006737;23;20208;-70
2021/09/22 08:39:15;;;;;;;15.47;5.40;;;16.10;99.90;;;;;;6020849;23;20611;-71
2021/09/22 08:41:41;;;;;;;9.90;5.20;;;16.20;99.90;;;;;;6033398;23;20927;-71
2021/09/22 08:44:09;;;;;;;13.77;5.70;;;16.20;99.90;;;;;;5988595;23;20951;-70
2021/09/22 08:46:36;;;;;;;10.70;5.43;;;16.30;99.90;;;;;;5982153;23;20639;-70
2021/09/22 08:49:03;;;;;;;14.63;7.03;;;16.30;99.90;;;;;;6008231;23;20546;-70
2021/09/22 08:51:29;;;;;;;10.23;5.87;;;16.30;99.90;;;;;;6009174;23;21079;-70
2021/09/22 08:53:55;;;;;;;11.87;6.90;;;16.30;99.90;;;;;;6008120;23;20883;-70
2021/09/22 08:56:21;;;;;;;9.27;5.90;;;16.40;99.90;;;;;;5981330;23;20995;-70
2021/09/22 08:58:48;;;;;;;13.47;7.50;;;16.40;99.90;;;;;;6007114;23;20581;-70
2021/09/22 09:01:16;;;;;;;8.70;6.73;;;16.50;99.90;;;;;;6005263;23;20167;-70
2021/09/22 09:03:42;;;;;;;12.37;7.50;;;16.50;99.90;;;;;;6008531;23;20562;-70
2021/09/22 09:06:34;;;;;;;17.23;7.60;;;16.50;99.90;;;;;;6006077;23;20594;-70
2021/09/22 09:09:02;;;;;;;12.20;7.03;;;16.50;99.90;;;;;;6000353;23;20612;-70
2021/09/22 09:11:31;;;;;;;12.33;9.00;;;16.60;99.90;;;;;;6008513;23;20521;-70
2021/09/22 09:13:59;;;;;;;10.30;8.57;;;16.50;99.90;;;;;;5983473;23;20565;-70
2021/09/22 09:16:52;;;;;;;9.57;7.80;;;16.50;99.90;;;;;;6006357;23;20593;-70
2021/09/22 09:19:20;;;;;;;13.50;7.90;;;16.60;99.90;;;;;;6002102;23;21130;-70
2021/09/22 09:22:06;;;;;;;10.77;8.30;;;16.60;99.90;;;;;;6008493;23;20586;-70
2021/09/22 09:24:41;;;;;;;15.43;8.80;;;16.60;99.90;;;;;;5981870;23;20661;-70
2021/09/22 09:27:14;;;;;;;14.03;8.00;;;16.60;99.90;;;;;;6007048;23;20688;-70
2021/09/22 09:29:42;;;;;;;13.30;8.67;;;16.70;99.90;;;;;;6007365;23;20613;-70
2021/09/22 09:32:13;;;;;;;10.73;7.83;;;16.80;99.90;;;;;;6007914;23;21001;-70
2021/09/22 09:35:03;;;;;;;10.23;7.00;;;16.90;99.90;;;;;;6005679;23;20563;-70
2021/09/22 09:37:39;;;;;;;8.83;7.53;;;17.00;99.90;;;;;;6007166;23;20653;-70
2021/09/22 09:40:15;;;;;;;9.50;6.77;;;17.00;99.90;;;;;;6007274;23;20593;-70
2021/09/22 09:42:43;;;;;;;9.20;6.00;;;17.10;99.90;;;;;;5982687;23;20562;-70
2021/09/22 09:45:10;;;;;;;9.53;6.70;;;17.30;99.90;;;;;;5981789;23;20562;-70
2021/09/22 09:47:36;;;;;;;9.10;6.33;;;17.30;99.90;;;;;;5981563;23;20640;-70
2021/09/22 09:50:20;;;;;;;9.00;6.50;;;17.40;99.90;;;;;;6005784;23;20557;-70
2021/09/22 09:52:57;;;;;;;9.33;5.90;;;17.30;99.90;;;;;;6006053;23;20538;-70
2021/09/22 09:55:25;;;;;;;8.13;6.00;;;17.30;99.90;;;;;;6004165;23;20834;-70
2021/09/22 09:57:53;;;;;;;8.27;6.27;;;17.20;99.90;;;;;;5982824;23;20649;-70
2021/09/22 10:00:36;;;;;;;6.97;6.00;;;17.30;99.90;;;;;;6007426;23;20609;-70
2021/09/22 10:03:16;;;;;;;8.43;6.53;;;17.50;99.90;;;;;;5980137;23;20656;-70
2021/09/22 10:05:42;;;;;;;9.10;6.70;;;17.70;99.90;;;;;;6004849;23;20585;-70
2021/09/22 10:08:11;;;;;;;9.67;7.30;;;18.00;99.90;;;;;;6007013;23;20570;-70
2021/09/22 10:10:37;;;;;;;8.37;6.87;;;17.80;99.90;;;;;;6006917;23;20566;-70
2021/09/22 10:13:03;;;;;;;7.73;6.70;;;18.00;99.90;;;;;;6006999;23;20549;-70
2021/09/22 10:15:33;;;;;;;10.33;7.63;;;18.10;99.90;;;;;;6004720;23;20542;-70
2021/09/22 10:17:59;;;;;;;8.50;6.50;;;18.20;99.90;;;;;;6007405;23;20197;-70
2021/09/22 10:20:25;;;;;;;7.03;6.17;;;18.40;99.90;;;;;;6004549;23;20542;-70
2021/09/22 10:22:52;;;;;;;7.17;5.57;;;18.60;99.90;;;;;;6007471;23;20606;-70
2021/09/22 10:25:21;;;;;;;9.50;4.90;;;18.40;99.90;;;;;;6006332;23;20236;-70
2021/09/22 10:27:48;;;;;;;9.07;5.93;;;18.30;99.90;;;;;;6007805;23;20581;-70
2021/09/22 10:30:15;;;;;;;6.60;5.30;;;18.30;99.90;;;;;;6007303;23;20633;-70
2021/09/22 10:32:41;;;;;;;6.00;5.17;;;18.20;99.90;;;;;;6006953;23;20633;-71
2021/09/22 10:35:24;;;;;;;9.47;5.00;;;18.10;99.90;;;;;;6004605;23;20534;-70
2021/09/22 10:37:55;;;;;;;5.27;4.50;;;18.30;99.90;;;;;;6005819;23;20209;-70
2021/09/22 10:40:33;;;;;;;5.03;4.23;;;18.40;99.90;;;;;;6007055;23;20839;-72
2021/09/22 10:43:14;;;;;;;6.80;3.90;;;18.50;99.90;;;;;;6007974;23;20545;-70
2021/09/22 10:45:44;;;;;;;7.87;4.20;;;18.60;99.90;;;;;;6005093;23;20592;-71
2021/09/22 10:48:22;;;;;;;8.30;4.37;;;18.70;99.90;;;;;;6006467;23;20566;-70
2021/09/22 10:50:51;;;;;;;8.17;4.47;;;18.70;99.90;;;;;;5981416;23;20744;-70
2021/09/22 10:53:32;;;;;;;6.50;4.30;;;18.70;99.90;;;;;;5982498;23;20570;-70
2021/09/22 10:56:07;;;;;;;6.30;3.80;;;18.60;99.90;;;;;;6004811;23;20581;-70
2021/09/22 10:58:39;;;;;;;7.87;4.80;;;18.50;99.90;;;;;;5982246;23;20660;-70
2021/09/22 11:01:04;;;;;;;7.33;4.30;;;18.40;99.90;;;;;;6006668;23;20545;-70
2021/09/22 11:03:53;;;;;;;9.40;4.57;;;18.40;99.90;;;;;;5978286;23;20577;-70
2021/09/22 11:06:49;;;;;;;8.00;4.30;;;18.50;99.90;;;;;;6005064;23;20220;-71
2021/09/22 11:09:18;;;;;;;6.80;4.43;;;18.60;99.90;;;;;;6006284;23;20565;-71
2021/09/22 11:12:06;;;;;;;8.07;4.67;;;18.60;99.90;;;;;;6007069;23;20513;-70
2021/09/22 11:14:37;;;;;;;6.97;5.13;;;18.80;99.90;;;;;;6006066;23;20590;-70
2021/09/22 11:17:16;;;;;;;7.40;5.47;;;18.90;99.90;;;;;;6005428;23;21361;-71
2021/09/22 11:19:44;;;;;;;6.47;5.20;;;19.00;99.90;;;;;;6004752;23;20502;-70
2021/09/22 11:22:13;;;;;;;5.60;5.20;;;19.10;99.90;;;;;;6005465;23;20537;-71
2021/09/22 11:24:41;;;;;;;7.20;5.40;;;19.20;99.90;;;;;;6005990;23;20538;-70
2021/09/22 11:27:17;;;;;;;6.37;4.70;;;19.40;99.90;;;;;;6026610;23;20684;-72
2021/09/22 11:30:02;;;;;;;4.87;4.00;;;19.20;99.90;;;;;;6025435;23;21498;-71
2021/09/22 11:32:41;;;;;;;5.30;4.50;;;19.20;99.90;;;;;;6004374;23;20518;-71
2021/09/22 11:35:11;;;;;;;4.70;4.23;;;19.20;99.90;;;;;;6004409;23;20565;-72
2021/09/22 11:37:48;;;;;;;7.87;4.47;;;19.30;99.90;;;;;;6006727;23;20636;-71
2021/09/22 11:40:26;;;;;;;6.80;4.47;;;19.30;99.90;;;;;;6005351;23;21178;-71
2021/09/22 11:43:04;;;;;;;3.53;3.23;;;19.30;99.90;;;;;;6006515;23;20507;-70
2021/09/22 11:45:36;;;;;;;7.60;4.27;;;19.20;99.90;;;;;;6005357;23;20530;-70
2021/09/22 11:48:01;;;;;;;3.90;3.60;;;19.20;99.90;;;;;;6006064;23;21122;-71
2021/09/22 11:50:30;;;;;;;5.23;3.97;;;19.30;99.90;;;;;;6004620;23;20553;-67
2021/09/22 11:52:57;;;;;;;6.03;4.80;;;19.30;99.90;;;;;;5981061;23;20197;-67
2021/09/22 11:55:23;;;;;;;4.37;3.70;;;19.40;99.90;;;;;;6004526;23;20593;-67
2021/09/22 11:57:49;;;;;;;4.40;3.27;;;19.60;99.90;;;;;;6004959;23;21190;-67
2021/09/22 12:00:21;;;;;;;5.03;3.67;;;19.80;99.90;;;;;;5981551;23;20679;-67
2021/09/22 12:02:47;;;;;;;4.07;3.40;;;20.00;99.90;;;;;;6005461;23;20613;-68
2021/09/22 12:05:18;;;;;;;6.47;3.90;;;20.20;99.90;;;;;;6006115;23;20545;-65
2021/09/22 12:07:44;;;;;;;3.10;2.90;;;20.40;99.90;;;;;;6004481;23;20204;-67
2021/09/22 12:10:12;;;;;;;4.23;3.17;;;20.70;99.90;;;;;;5980631;23;20605;-66
2021/09/22 12:12:39;;;;;;;3.50;3.17;;;20.60;99.90;;;;;;5980785;23;21112;-70
2021/09/22 12:15:07;;;;;;;3.50;2.80;;;20.60;99.90;;;;;;6004705;23;20574;-70
2021/09/22 12:17:35;;;;;;;4.00;2.90;;;21.00;99.90;;;;;;6005327;23;20723;-70
2021/09/22 12:20:08;;;;;;;3.40;3.10;;;21.50;99.90;;;;;;6005714;23;20626;-70
2021/09/22 12:22:36;;;;;;;6.20;3.10;;;21.90;99.90;;;;;;6007565;23;20514;-70
2021/09/22 12:25:03;;;;;;;4.77;3.33;;;22.30;99.90;;;;;;6006056;23;20545;-70
2021/09/22 12:27:30;;;;;;;3.83;2.90;;;22.80;99.90;;;;;;5979653;23;20624;-70
2021/09/22 12:29:56;;;;;;;4.13;3.00;;;23.30;99.90;;;;;;6006462;23;20652;-70
2021/09/22 12:32:24;;;;;;;3.87;3.13;;;23.90;99.90;;;;;;6005521;23;20574;-70
2021/09/22 12:34:50;;;;;;;5.10;2.70;;;25.20;99.90;;;;;;5981237;23;20164;-70
2021/09/22 12:37:19;;;;;;;3.20;2.30;;;27.50;99.90;;;;;;6005242;23;20629;-70
2021/09/22 12:40:14;;;;;;;3.43;2.47;;;29.80;99.90;;;;;;6006493;23;20541;-70
2021/09/22 12:42:48;;;;;;;4.40;2.53;;;31.80;99.90;;;;;;5974270;23;20592;-70
2021/09/22 12:45:16;;;;;;;2.83;2.13;;;32.40;99.90;;;;;;6007143;23;20526;-70
2021/09/22 12:47:54;;;;;;;3.20;2.27;;;33.50;98.50;;;;;;6005637;23;20616;-70
2021/09/22 12:50:40;;;;;;;2.40;2.30;;;34.70;94.40;;;;;;6005407;23;20538;-70